Swinomish — WC5223 — position and weather

sailwx.info

Track history (hours):
 
Tides and Currents Weather Stations Pressure Air Temp Water Temp Dewpoint Dewpoint Depression Visibility Wind Speed Wind Dir Waves Ship Positions

Swinomish

Owner: DUNLAP TOWING CO, LA CONNER, WA. More information available from US FCC via Universal Licensing System and Coast Guard Vessel Documentation Center.

Last reported at 2017-Feb-24 07:33 UTC. Time now 2017-Feb-24 21:38 UTC.
Position N 47°14' W 122°35'.

Length 15 m; draft 3.5 m.

Type: Tug. MMSI: 366972050.

Date/timePositionNaut miles runAvg speedWind from/ knotsBaromVisibWave heightAir tempDewpointWater temp
2017-Feb-24 07:33N 47°14' W 122°35'4 3.9
2017-Feb-24 06:33N 47°18' W 122°32'2 1.8
2017-Feb-24 05:33N 47°19' W 122°33'2 1.6
2017-Feb-24 04:33N 47°19' W 122°30'1 1.4
2017-Feb-24 03:33N 47°18' W 122°29'0 0.5
2017-Feb-24 02:33N 47°17' W 122°29'1 0.6
2017-Feb-24 01:33N 47°18' W 122°29'1 0.9
2017-Feb-24 00:33N 47°17' W 122°28'0 0.3
2017-Feb-23 23:33N 47°17' W 122°29'1 0.5
2017-Feb-23 22:33N 47°18' W 122°29'1 0.6
2017-Feb-23 21:33N 47°18' W 122°30'2 2.3
2017-Feb-23 20:33N 47°20' W 122°28'2 2.5
2017-Feb-23 19:33N 47°22' W 122°25'2 2.3
2017-Feb-23 18:33N 47°23' W 122°22'2 1.9
2017-Feb-23 17:33N 47°25' W 122°24'2 2.0
2017-Feb-23 16:33N 47°26' W 122°25'2 1.8
2017-Feb-23 15:33N 47°28' W 122°26'2 1.7
2017-Feb-23 14:33N 47°30' W 122°26'2 2.2
2017-Feb-23 13:33N 47°32' W 122°28'2 2.2
2017-Feb-23 12:33N 47°34' W 122°28'2 2.4
2017-Feb-23 11:34N 47°36' W 122°29'2 2.3
2017-Feb-23 10:33N 47°39' W 122°29'2 2.3
2017-Feb-23 09:33N 47°41' W 122°29'3 2.5
2017-Feb-23 08:33N 47°43' W 122°28'3 3.1
2017-Feb-23 07:33N 47°46' W 122°27'2 2.5
2017-Feb-23 06:33N 47°48' W 122°25'2 2.2
2017-Feb-23 05:33N 47°50' W 122°23'2 2.2
2017-Feb-23 04:33N 47°52' W 122°21'3 2.7
2017-Feb-23 03:33N 47°55' W 122°20'3 3.0
2017-Feb-23 02:33N 47°58' W 122°19'2 2.2
2017-Feb-23 01:31N 47°58' W 122°15'0 0.4
2017-Feb-23 00:33N 47°58' W 122°15'1 1.2
2017-Feb-22 23:33N 47°59' W 122°16'4 3.3
2017-Feb-22 22:18N 48°02' W 122°20'2 3.3
2017-Feb-22 21:33N 48°03' W 122°23'3 3.1
2017-Feb-22 20:32N 48°05' W 122°27'6 2.8
2017-Feb-22 18:27N 48°10' W 122°32'2 2.7
2017-Feb-22 17:31N 48°12' W 122°33'3 2.7
2017-Feb-22 16:30N 48°15' W 122°33'2 2.4
2017-Feb-22 15:33N 48°17' W 122°31'2 2.3
2017-Feb-22 14:33N 48°19' W 122°31'2 2.4
2017-Feb-22 13:33N 48°21' W 122°33'1 1.3
2017-Feb-22 12:32N 48°22' W 122°32'0 0.0
2017-Feb-22 11:31N 48°22' W 122°32'2 2.4
2017-Feb-22 10:32N 48°24' W 122°30'0 0.0
2017-Feb-22 09:33N 48°24' W 122°30'0 0.0
2017-Feb-22 08:29N 48°24' W 122°30'0 0.0
2017-Feb-22 07:33N 48°24' W 122°30'0 0.0
2017-Feb-22 04:27N 48°24' W 122°30'0 0.0
2017-Feb-21 21:12N 48°24' W 122°30'22 6.9
2017-Feb-21 18:04N 48°03' W 122°22'611.1
2017-Feb-21 17:33N 47°59' W 122°15'1 1.1
2017-Feb-21 16:26N 47°59' W 122°13'0 0.2
2017-Feb-21 15:25N 47°59' W 122°13'1 1.6
2017-Feb-21 14:33N 47°59' W 122°16'3 2.7
2017-Feb-21 13:33N 48°01' W 122°18'3 2.9
2017-Feb-21 12:32N 48°02' W 122°21'3 2.9
2017-Feb-21 11:34N 48°04' W 122°25'6 2.5
2017-Feb-21 09:07N 48°08' W 122°32'6 2.3
2017-Feb-21 06:27N 48°14' W 122°33'2 2.6
2017-Feb-21 05:31N 48°16' W 122°31'2 2.5
2017-Feb-21 04:33N 48°18' W 122°30'4 3.8
2017-Feb-21 03:33N 48°21' W 122°34'4 3.1
2017-Feb-21 02:23N 48°25' W 122°35'2 2.1
2017-Feb-21 01:33N 48°24' W 122°38'1 1.0
2017-Feb-21 00:32N 48°24' W 122°40'1 0.6
2017-Feb-20 23:33N 48°25' W 122°40'1 0.6
2017-Feb-20 22:32N 48°25' W 122°41'0 0.1
2017-Feb-20 21:33N 48°25' W 122°41'1 1.4
2017-Feb-20 20:33N 48°26' W 122°42'2 1.9
2017-Feb-20 19:33N 48°28' W 122°44'2 1.6
2017-Feb-20 18:33N 48°30' W 122°44'1 1.4
2017-Feb-20 17:34N 48°31' W 122°45'2 1.5
2017-Feb-20 16:33N 48°32' W 122°47'1 1.5
2017-Feb-20 15:33N 48°32' W 122°49'1 1.2
2017-Feb-20 14:33N 48°31' W 122°51'0 0.0
2017-Feb-20 13:33N 48°31' W 122°51'0 0.0
2017-Feb-20 12:33N 48°31' W 122°51'0 0.0
2017-Feb-20 11:33N 48°31' W 122°51'0 0.0
2017-Feb-20 10:33N 48°31' W 122°51'0 0.0
2017-Feb-20 09:33N 48°31' W 122°51'0 0.0
2017-Feb-20 08:33N 48°31' W 122°51'0 0.0
2017-Feb-20 07:33N 48°31' W 122°51'0 0.0
2017-Feb-20 06:33N 48°31' W 122°51'0 0.0
2017-Feb-20 05:33N 48°31' W 122°51'0 0.0
2017-Feb-20 04:33N 48°31' W 122°51'0 0.0
2017-Feb-20 03:33N 48°31' W 122°51'0 0.0
2017-Feb-20 02:33N 48°31' W 122°51'0 0.0
2017-Feb-20 01:33N 48°31' W 122°51'0 0.0
2017-Feb-20 00:33N 48°31' W 122°51'0 0.0
2017-Feb-19 23:33N 48°31' W 122°51'0 0.0
2017-Feb-19 22:33N 48°31' W 122°51'0 0.0
2017-Feb-19 21:34N 48°31' W 122°51'0 0.0
2017-Feb-19 20:33N 48°31' W 122°51'0 0.0
2017-Feb-19 19:33N 48°31' W 122°51'0 0.0
2017-Feb-19 18:33N 48°31' W 122°51'0 0.0
2017-Feb-19 17:33N 48°31' W 122°51'0 0.0
2017-Feb-19 16:33N 48°31' W 122°51'0 0.0
2017-Feb-19 15:33N 48°31' W 122°51'0 0.0
2017-Feb-19 14:33N 48°31' W 122°51'0 0.0
2017-Feb-19 13:34N 48°31' W 122°51'0 0.0
2017-Feb-19 12:33N 48°31' W 122°51'0 0.0
2017-Feb-19 11:33N 48°31' W 122°51'0 0.0
2017-Feb-19 10:33N 48°31' W 122°51'0 0.0
2017-Feb-19 09:34N 48°31' W 122°51'0 0.0
2017-Feb-19 08:33N 48°31' W 122°51'0 0.0
2017-Feb-19 07:33N 48°31' W 122°51'0 0.0
2017-Feb-19 06:33N 48°31' W 122°51'0 0.0
2017-Feb-19 05:33N 48°31' W 122°51'0 0.0
2017-Feb-19 04:33N 48°31' W 122°51'0 0.0
2017-Feb-19 03:33N 48°31' W 122°51'0 0.0
2017-Feb-19 02:33N 48°31' W 122°51'0 0.1
2017-Feb-19 01:33N 48°31' W 122°51'7 7.3
2017-Feb-19 00:33N 48°31' W 122°40'2 2.4
2017-Feb-18 23:33N 48°31' W 122°44'5 4.9
2017-Feb-18 22:33N 48°31' W 122°51'0 0.0
2017-Feb-18 21:33N 48°31' W 122°51'0 0.0
2017-Feb-18 20:34N 48°31' W 122°51'0 0.0
2017-Feb-18 19:33N 48°31' W 122°51'0 0.0
2017-Feb-18 18:33N 48°31' W 122°51'0 0.3
2017-Feb-18 17:33N 48°31' W 122°51'1 1.5
2017-Feb-18 16:33N 48°33' W 122°50'1 1.5
2017-Feb-18 15:34N 48°34' W 122°52'1 1.4
2017-Feb-18 14:34N 48°35' W 122°53'1 1.2
2017-Feb-18 13:33N 48°35' W 122°55'1 1.4
2017-Feb-18 12:34N 48°36' W 122°57'1 0.7
2017-Feb-18 11:33N 48°36' W 122°58'2 1.6
2017-Feb-18 10:33N 48°36' W 123°01'2 1.8
2017-Feb-18 09:33N 48°37' W 123°02'2 2.3
2017-Feb-18 08:33N 48°39' W 123°02'2 1.5
2017-Feb-18 07:33N 48°41' W 123°03'2 2.0
2017-Feb-18 06:33N 48°42' W 123°05'2 1.9
2017-Feb-18 05:33N 48°43' W 123°08'2 2.0
2017-Feb-18 04:34N 48°45' W 123°10'2 1.6
2017-Feb-18 03:33N 48°46' W 123°12'1 1.1
2017-Feb-18 02:33N 48°46' W 123°13'1 0.9
2017-Feb-18 01:33N 48°47' W 123°14'1 0.6
2017-Feb-18 00:31N 48°47' W 123°14'0 0.0
2017-Feb-17 23:32N 48°47' W 123°14'0 0.0
2017-Feb-17 22:33N 48°47' W 123°14'0 0.0
2017-Feb-17 21:33N 48°47' W 123°14'0 0.0
2017-Feb-17 20:33N 48°47' W 123°14'0 0.0
2017-Feb-17 19:33N 48°47' W 123°14'0 0.0
2017-Feb-17 18:34N 48°47' W 123°14'0 0.0
2017-Feb-17 17:33N 48°47' W 123°14'0 0.0
2017-Feb-17 16:33N 48°47' W 123°14'0 0.0
2017-Feb-17 15:33N 48°47' W 123°14'0 0.0
2017-Feb-17 14:32N 48°47' W 123°14'1 0.7
2017-Feb-17 13:32N 48°48' W 123°15'1 1.3
2017-Feb-17 12:30N 48°49' W 123°16'1 1.2
2017-Feb-17 11:28N 48°49' W 123°18'2 1.9
2017-Feb-17 10:30N 48°50' W 123°21'2 2.0
2017-Feb-17 09:32N 48°51' W 123°23'2 1.5
2017-Feb-17 08:06N 48°52' W 123°26'1 0.9
2017-Feb-17 06:31N 48°53' W 123°27'0 0.4
2017-Feb-17 05:28N 48°54' W 123°28'1 0.9
2017-Feb-17 04:12N 48°54' W 123°29'3 1.1
2017-Feb-17 01:23N 48°57' W 123°32'1 1.4
2017-Feb-17 00:29N 48°57' W 123°34'2 1.7
2017-Feb-16 23:24N 48°59' W 123°35'2 2.0
2017-Feb-16 22:33N 49°00' W 123°37'4 1.8
2017-Feb-16 20:21N 49°04' W 123°40'1 1.6
2017-Feb-16 19:32N 49°05' W 123°41'2 1.5
2017-Feb-16 18:14N 49°06' W 123°43'0 0.4
2017-Feb-16 17:22N 49°07' W 123°43'0 0.0
2017-Feb-16 16:19N 49°07' W 123°43'0 0.0
2017-Feb-16 14:14N 49°07' W 123°43'0 0.0
2017-Feb-16 13:28N 49°07' W 123°43'0 0.0
2017-Feb-16 12:33N 49°07' W 123°43'0 0.0
2017-Feb-16 11:17N 49°07' W 123°43'0 0.0
2017-Feb-16 08:18N 49°07' W 123°43'0 0.0
2017-Feb-16 07:33N 49°07' W 123°43'0 0.0
2017-Feb-16 06:29N 49°07' W 123°43'0 0.0
2017-Feb-16 05:32N 49°07' W 123°43'0 0.0
2017-Feb-16 04:33N 49°07' W 123°43'0 0.0
2017-Feb-16 03:33N 49°07' W 123°43'0 0.0
2017-Feb-16 02:33N 49°07' W 123°43'0 0.0
2017-Feb-16 01:33N 49°07' W 123°43'0 0.0
2017-Feb-16 00:30N 49°07' W 123°43'0 0.0
2017-Feb-15 23:33N 49°07' W 123°43'0 0.0
2017-Feb-15 22:33N 49°07' W 123°43'0 0.0
2017-Feb-15 21:32N 49°07' W 123°43'0 0.0
2017-Feb-15 20:33N 49°07' W 123°43'0 0.0
2017-Feb-15 19:32N 49°07' W 123°43'0 0.0
2017-Feb-15 18:33N 49°07' W 123°43'0 0.1
2017-Feb-15 17:32N 49°07' W 123°43'0 0.1
2017-Feb-15 16:33N 49°07' W 123°43'0 0.0
2017-Feb-15 15:33N 49°07' W 123°43'0 0.0
2017-Feb-15 14:30N 49°07' W 123°43'0 0.0
2017-Feb-15 13:31N 49°07' W 123°43'0 0.0
2017-Feb-15 12:32N 49°07' W 123°43'0 0.0
2017-Feb-15 11:31N 49°07' W 123°43'0 0.0
2017-Feb-15 10:33N 49°07' W 123°43'0 0.0
2017-Feb-15 09:33N 49°07' W 123°43'0 0.0
2017-Feb-15 08:31N 49°07' W 123°43'0 0.0
2017-Feb-15 07:33N 49°07' W 123°43'0 0.0
2017-Feb-15 06:33N 49°07' W 123°43'0 0.0
2017-Feb-15 05:33N 49°07' W 123°43'0 0.0
2017-Feb-15 04:33N 49°07' W 123°43'0 0.0
2017-Feb-15 03:31N 49°07' W 123°43'0 0.0
2017-Feb-15 02:28N 49°07' W 123°43'0 0.1
2017-Feb-15 01:33N 49°07' W 123°43'0 0.1
2017-Feb-15 00:33N 49°07' W 123°43'0 0.4
2017-Feb-14 23:33N 49°07' W 123°43'4 3.8
2017-Feb-14 22:33N 49°04' W 123°40'4 4.2
2017-Feb-14 21:31N 49°00' W 123°36'4 3.7
2017-Feb-14 20:31N 48°57' W 123°33'3 3.2
2017-Feb-14 19:31N 48°55' W 123°29'8 3.4
2017-Feb-14 17:12N 48°50' W 123°20'3 3.6
2017-Feb-14 16:25N 48°49' W 123°16'3 3.7
2017-Feb-14 15:33N 48°46' W 123°13'4 3.6
2017-Feb-14 14:33N 48°44' W 123°08'4 4.3
2017-Feb-14 13:33N 48°40' W 123°06'4 4.4
2017-Feb-14 12:33N 48°37' W 123°02'4 4.0
2017-Feb-14 11:33N 48°35' W 122°56'4 4.3
2017-Feb-14 10:33N 48°33' W 122°51'4 3.8
2017-Feb-14 09:33N 48°31' W 122°46'3 2.9
2017-Feb-14 08:33N 48°29' W 122°44'3 3.0
2017-Feb-14 07:33N 48°26' W 122°42'  
Track history (hours):
 
Tides and Currents Weather Stations Pressure Air Temp Water Temp Dewpoint Dewpoint Depression Visibility Wind Speed Wind Dir Waves Ship Positions

Swinomish

Owner: DUNLAP TOWING CO, LA CONNER, WA. More information available from US FCC via Universal Licensing System and Coast Guard Vessel Documentation Center.

Last reported at 2017-Feb-24 07:33 UTC. Time now 2017-Feb-24 21:38 UTC.
Position N 47°14' W 122°35'.

Length 15 m; draft 3.5 m.

Type: Tug. MMSI: 366972050.

Date/timePositionNaut miles runAvg speedWind from/ knotsBaromVisibWave heightAir tempDewpointWater temp
2017-Feb-24 07:33N 47°14' W 122°35'4 3.9
2017-Feb-24 06:33N 47°18' W 122°32'2 1.8
2017-Feb-24 05:33N 47°19' W 122°33'2 1.6
2017-Feb-24 04:33N 47°19' W 122°30'1 1.4
2017-Feb-24 03:33N 47°18' W 122°29'0 0.5
2017-Feb-24 02:33N 47°17' W 122°29'1 0.6
2017-Feb-24 01:33N 47°18' W 122°29'1 0.9
2017-Feb-24 00:33N 47°17' W 122°28'0 0.3
2017-Feb-23 23:33N 47°17' W 122°29'1 0.5
2017-Feb-23 22:33N 47°18' W 122°29'1 0.6
2017-Feb-23 21:33N 47°18' W 122°30'2 2.3
2017-Feb-23 20:33N 47°20' W 122°28'2 2.5
2017-Feb-23 19:33N 47°22' W 122°25'2 2.3
2017-Feb-23 18:33N 47°23' W 122°22'2 1.9
2017-Feb-23 17:33N 47°25' W 122°24'2 2.0
2017-Feb-23 16:33N 47°26' W 122°25'2 1.8
2017-Feb-23 15:33N 47°28' W 122°26'2 1.7
2017-Feb-23 14:33N 47°30' W 122°26'2 2.2
2017-Feb-23 13:33N 47°32' W 122°28'2 2.2
2017-Feb-23 12:33N 47°34' W 122°28'2 2.4
2017-Feb-23 11:34N 47°36' W 122°29'2 2.3
2017-Feb-23 10:33N 47°39' W 122°29'2 2.3
2017-Feb-23 09:33N 47°41' W 122°29'3 2.5
2017-Feb-23 08:33N 47°43' W 122°28'3 3.1
2017-Feb-23 07:33N 47°46' W 122°27'2 2.5
2017-Feb-23 06:33N 47°48' W 122°25'2 2.2
2017-Feb-23 05:33N 47°50' W 122°23'2 2.2
2017-Feb-23 04:33N 47°52' W 122°21'3 2.7
2017-Feb-23 03:33N 47°55' W 122°20'3 3.0
2017-Feb-23 02:33N 47°58' W 122°19'2 2.2
2017-Feb-23 01:31N 47°58' W 122°15'0 0.4
2017-Feb-23 00:33N 47°58' W 122°15'1 1.2
2017-Feb-22 23:33N 47°59' W 122°16'4 3.3
2017-Feb-22 22:18N 48°02' W 122°20'2 3.3
2017-Feb-22 21:33N 48°03' W 122°23'3 3.1
2017-Feb-22 20:32N 48°05' W 122°27'6 2.8
2017-Feb-22 18:27N 48°10' W 122°32'2 2.7
2017-Feb-22 17:31N 48°12' W 122°33'3 2.7
2017-Feb-22 16:30N 48°15' W 122°33'2 2.4
2017-Feb-22 15:33N 48°17' W 122°31'2 2.3
2017-Feb-22 14:33N 48°19' W 122°31'2 2.4
2017-Feb-22 13:33N 48°21' W 122°33'1 1.3
2017-Feb-22 12:32N 48°22' W 122°32'0 0.0
2017-Feb-22 11:31N 48°22' W 122°32'2 2.4
2017-Feb-22 10:32N 48°24' W 122°30'0 0.0
2017-Feb-22 09:33N 48°24' W 122°30'0 0.0
2017-Feb-22 08:29N 48°24' W 122°30'0 0.0
2017-Feb-22 07:33N 48°24' W 122°30'0 0.0
2017-Feb-22 04:27N 48°24' W 122°30'0 0.0
2017-Feb-21 21:12N 48°24' W 122°30'22 6.9
2017-Feb-21 18:04N 48°03' W 122°22'611.1
2017-Feb-21 17:33N 47°59' W 122°15'1 1.1
2017-Feb-21 16:26N 47°59' W 122°13'0 0.2
2017-Feb-21 15:25N 47°59' W 122°13'1 1.6
2017-Feb-21 14:33N 47°59' W 122°16'3 2.7
2017-Feb-21 13:33N 48°01' W 122°18'3 2.9
2017-Feb-21 12:32N 48°02' W 122°21'3 2.9
2017-Feb-21 11:34N 48°04' W 122°25'6 2.5
2017-Feb-21 09:07N 48°08' W 122°32'6 2.3
2017-Feb-21 06:27N 48°14' W 122°33'2 2.6
2017-Feb-21 05:31N 48°16' W 122°31'2 2.5
2017-Feb-21 04:33N 48°18' W 122°30'4 3.8
2017-Feb-21 03:33N 48°21' W 122°34'4 3.1
2017-Feb-21 02:23N 48°25' W 122°35'2 2.1
2017-Feb-21 01:33N 48°24' W 122°38'1 1.0
2017-Feb-21 00:32N 48°24' W 122°40'1 0.6
2017-Feb-20 23:33N 48°25' W 122°40'1 0.6
2017-Feb-20 22:32N 48°25' W 122°41'0 0.1
2017-Feb-20 21:33N 48°25' W 122°41'1 1.4
2017-Feb-20 20:33N 48°26' W 122°42'2 1.9
2017-Feb-20 19:33N 48°28' W 122°44'2 1.6
2017-Feb-20 18:33N 48°30' W 122°44'1 1.4
2017-Feb-20 17:34N 48°31' W 122°45'2 1.5
2017-Feb-20 16:33N 48°32' W 122°47'1 1.5
2017-Feb-20 15:33N 48°32' W 122°49'1 1.2
2017-Feb-20 14:33N 48°31' W 122°51'0 0.0
2017-Feb-20 13:33N 48°31' W 122°51'0 0.0
2017-Feb-20 12:33N 48°31' W 122°51'0 0.0
2017-Feb-20 11:33N 48°31' W 122°51'0 0.0
2017-Feb-20 10:33N 48°31' W 122°51'0 0.0
2017-Feb-20 09:33N 48°31' W 122°51'0 0.0
2017-Feb-20 08:33N 48°31' W 122°51'0 0.0
2017-Feb-20 07:33N 48°31' W 122°51'0 0.0
2017-Feb-20 06:33N 48°31' W 122°51'0 0.0
2017-Feb-20 05:33N 48°31' W 122°51'0 0.0
2017-Feb-20 04:33N 48°31' W 122°51'0 0.0
2017-Feb-20 03:33N 48°31' W 122°51'0 0.0
2017-Feb-20 02:33N 48°31' W 122°51'0 0.0
2017-Feb-20 01:33N 48°31' W 122°51'0 0.0
2017-Feb-20 00:33N 48°31' W 122°51'0 0.0
2017-Feb-19 23:33N 48°31' W 122°51'0 0.0
2017-Feb-19 22:33N 48°31' W 122°51'0 0.0
2017-Feb-19 21:34N 48°31' W 122°51'0 0.0
2017-Feb-19 20:33N 48°31' W 122°51'0 0.0
2017-Feb-19 19:33N 48°31' W 122°51'0 0.0
2017-Feb-19 18:33N 48°31' W 122°51'0 0.0
2017-Feb-19 17:33N 48°31' W 122°51'0 0.0
2017-Feb-19 16:33N 48°31' W 122°51'0 0.0
2017-Feb-19 15:33N 48°31' W 122°51'0 0.0
2017-Feb-19 14:33N 48°31' W 122°51'0 0.0
2017-Feb-19 13:34N 48°31' W 122°51'0 0.0
2017-Feb-19 12:33N 48°31' W 122°51'0 0.0
2017-Feb-19 11:33N 48°31' W 122°51'0 0.0
2017-Feb-19 10:33N 48°31' W 122°51'0 0.0
2017-Feb-19 09:34N 48°31' W 122°51'0 0.0
2017-Feb-19 08:33N 48°31' W 122°51'0 0.0
2017-Feb-19 07:33N 48°31' W 122°51'0 0.0
2017-Feb-19 06:33N 48°31' W 122°51'0 0.0
2017-Feb-19 05:33N 48°31' W 122°51'0 0.0
2017-Feb-19 04:33N 48°31' W 122°51'0 0.0
2017-Feb-19 03:33N 48°31' W 122°51'0 0.0
2017-Feb-19 02:33N 48°31' W 122°51'0 0.1
2017-Feb-19 01:33N 48°31' W 122°51'7 7.3
2017-Feb-19 00:33N 48°31' W 122°40'2 2.4
2017-Feb-18 23:33N 48°31' W 122°44'5 4.9
2017-Feb-18 22:33N 48°31' W 122°51'0 0.0
2017-Feb-18 21:33N 48°31' W 122°51'0 0.0
2017-Feb-18 20:34N 48°31' W 122°51'0 0.0
2017-Feb-18 19:33N 48°31' W 122°51'0 0.0
2017-Feb-18 18:33N 48°31' W 122°51'0 0.3
2017-Feb-18 17:33N 48°31' W 122°51'1 1.5
2017-Feb-18 16:33N 48°33' W 122°50'1 1.5
2017-Feb-18 15:34N 48°34' W 122°52'1 1.4
2017-Feb-18 14:34N 48°35' W 122°53'1 1.2
2017-Feb-18 13:33N 48°35' W 122°55'1 1.4
2017-Feb-18 12:34N 48°36' W 122°57'1 0.7
2017-Feb-18 11:33N 48°36' W 122°58'2 1.6
2017-Feb-18 10:33N 48°36' W 123°01'2 1.8
2017-Feb-18 09:33N 48°37' W 123°02'2 2.3
2017-Feb-18 08:33N 48°39' W 123°02'2 1.5
2017-Feb-18 07:33N 48°41' W 123°03'2 2.0
2017-Feb-18 06:33N 48°42' W 123°05'2 1.9
2017-Feb-18 05:33N 48°43' W 123°08'2 2.0
2017-Feb-18 04:34N 48°45' W 123°10'2 1.6
2017-Feb-18 03:33N 48°46' W 123°12'1 1.1
2017-Feb-18 02:33N 48°46' W 123°13'1 0.9
2017-Feb-18 01:33N 48°47' W 123°14'1 0.6
2017-Feb-18 00:31N 48°47' W 123°14'0 0.0
2017-Feb-17 23:32N 48°47' W 123°14'0 0.0
2017-Feb-17 22:33N 48°47' W 123°14'0 0.0
2017-Feb-17 21:33N 48°47' W 123°14'0 0.0
2017-Feb-17 20:33N 48°47' W 123°14'0 0.0
2017-Feb-17 19:33N 48°47' W 123°14'0 0.0
2017-Feb-17 18:34N 48°47' W 123°14'0 0.0
2017-Feb-17 17:33N 48°47' W 123°14'0 0.0
2017-Feb-17 16:33N 48°47' W 123°14'0 0.0
2017-Feb-17 15:33N 48°47' W 123°14'0 0.0
2017-Feb-17 14:32N 48°47' W 123°14'1 0.7
2017-Feb-17 13:32N 48°48' W 123°15'1 1.3
2017-Feb-17 12:30N 48°49' W 123°16'1 1.2
2017-Feb-17 11:28N 48°49' W 123°18'2 1.9
2017-Feb-17 10:30N 48°50' W 123°21'2 2.0
2017-Feb-17 09:32N 48°51' W 123°23'2 1.5
2017-Feb-17 08:06N 48°52' W 123°26'1 0.9
2017-Feb-17 06:31N 48°53' W 123°27'0 0.4
2017-Feb-17 05:28N 48°54' W 123°28'1 0.9
2017-Feb-17 04:12N 48°54' W 123°29'3 1.1
2017-Feb-17 01:23N 48°57' W 123°32'1 1.4
2017-Feb-17 00:29N 48°57' W 123°34'2 1.7
2017-Feb-16 23:24N 48°59' W 123°35'2 2.0
2017-Feb-16 22:33N 49°00' W 123°37'4 1.8
2017-Feb-16 20:21N 49°04' W 123°40'1 1.6
2017-Feb-16 19:32N 49°05' W 123°41'2 1.5
2017-Feb-16 18:14N 49°06' W 123°43'0 0.4
2017-Feb-16 17:22N 49°07' W 123°43'0 0.0
2017-Feb-16 16:19N 49°07' W 123°43'0 0.0
2017-Feb-16 14:14N 49°07' W 123°43'0 0.0
2017-Feb-16 13:28N 49°07' W 123°43'0 0.0
2017-Feb-16 12:33N 49°07' W 123°43'0 0.0
2017-Feb-16 11:17N 49°07' W 123°43'0 0.0
2017-Feb-16 08:18N 49°07' W 123°43'0 0.0
2017-Feb-16 07:33N 49°07' W 123°43'0 0.0
2017-Feb-16 06:29N 49°07' W 123°43'0 0.0
2017-Feb-16 05:32N 49°07' W 123°43'0 0.0
2017-Feb-16 04:33N 49°07' W 123°43'0 0.0
2017-Feb-16 03:33N 49°07' W 123°43'0 0.0
2017-Feb-16 02:33N 49°07' W 123°43'0 0.0
2017-Feb-16 01:33N 49°07' W 123°43'0 0.0
2017-Feb-16 00:30N 49°07' W 123°43'0 0.0
2017-Feb-15 23:33N 49°07' W 123°43'0 0.0
2017-Feb-15 22:33N 49°07' W 123°43'0 0.0
2017-Feb-15 21:32N 49°07' W 123°43'0 0.0
2017-Feb-15 20:33N 49°07' W 123°43'0 0.0
2017-Feb-15 19:32N 49°07' W 123°43'0 0.0
2017-Feb-15 18:33N 49°07' W 123°43'0 0.1
2017-Feb-15 17:32N 49°07' W 123°43'0 0.1
2017-Feb-15 16:33N 49°07' W 123°43'0 0.0
2017-Feb-15 15:33N 49°07' W 123°43'0 0.0
2017-Feb-15 14:30N 49°07' W 123°43'0 0.0
2017-Feb-15 13:31N 49°07' W 123°43'0 0.0
2017-Feb-15 12:32N 49°07' W 123°43'0 0.0
2017-Feb-15 11:31N 49°07' W 123°43'0 0.0
2017-Feb-15 10:33N 49°07' W 123°43'0 0.0
2017-Feb-15 09:33N 49°07' W 123°43'0 0.0
2017-Feb-15 08:31N 49°07' W 123°43'0 0.0
2017-Feb-15 07:33N 49°07' W 123°43'0 0.0
2017-Feb-15 06:33N 49°07' W 123°43'0 0.0
2017-Feb-15 05:33N 49°07' W 123°43'0 0.0
2017-Feb-15 04:33N 49°07' W 123°43'0 0.0
2017-Feb-15 03:31N 49°07' W 123°43'0 0.0
2017-Feb-15 02:28N 49°07' W 123°43'0 0.1
2017-Feb-15 01:33N 49°07' W 123°43'0 0.1
2017-Feb-15 00:33N 49°07' W 123°43'0 0.4
2017-Feb-14 23:33N 49°07' W 123°43'4 3.8
2017-Feb-14 22:33N 49°04' W 123°40'4 4.2
2017-Feb-14 21:31N 49°00' W 123°36'4 3.7
2017-Feb-14 20:31N 48°57' W 123°33'3 3.2
2017-Feb-14 19:31N 48°55' W 123°29'8 3.4
2017-Feb-14 17:12N 48°50' W 123°20'3 3.6
2017-Feb-14 16:25N 48°49' W 123°16'3 3.7
2017-Feb-14 15:33N 48°46' W 123°13'4 3.6
2017-Feb-14 14:33N 48°44' W 123°08'4 4.3
2017-Feb-14 13:33N 48°40' W 123°06'4 4.4
2017-Feb-14 12:33N 48°37' W 123°02'4 4.0
2017-Feb-14 11:33N 48°35' W 122°56'4 4.3
2017-Feb-14 10:33N 48°33' W 122°51'4 3.8
2017-Feb-14 09:33N 48°31' W 122°46'3 2.9
2017-Feb-14 08:33N 48°29' W 122°44'3 3.0
2017-Feb-14 07:33N 48°26' W 122°42'  

Dump ship's entire track history